Time;durP1;ratioP1;P1;durP2;ratioP2;P2;SDS_P1;SDS_P2;PMS_P1;PMS_P2;Temp;Humidity;BMP_temperature;BMP_pressure;BME280_temperature;BME280_humidity;BME280_pressure;Samples;Min_cycle;Max_cycle;Signal;HPM_P1;HPM_P2
2022/09/03 00:01:52;;;;;;;4.20;2.50;;;;;;;8.40;66.24;100709.86;130224;1268;108797;-78
2022/09/03 00:05:05;;;;;;;4.40;2.30;;;;;;;8.34;66.34;100703.47;130282;1267;107287;-78
2022/09/03 00:08:14;;;;;;;4.20;2.60;;;;;;;8.30;66.37;100706.10;130356;1268;108743;-78
2022/09/03 00:11:26;;;;;;;3.80;2.30;;;;;;;8.26;66.43;100706.38;130348;1267;108735;-79
2022/09/03 00:14:40;;;;;;;3.00;2.20;;;;;;;8.23;66.34;100709.10;130385;1267;108807;-79
2022/09/03 00:17:51;;;;;;;3.40;2.20;;;;;;;8.20;66.59;100708.67;130318;1267;108658;-79
2022/09/03 00:21:07;;;;;;;4.10;2.60;;;;;;;8.17;66.49;100710.69;129366;1267;1380461;-79
2022/09/03 00:24:16;;;;;;;3.50;2.40;;;;;;;8.13;66.43;100708.19;130305;1267;108643;-78
2022/09/03 00:27:26;;;;;;;4.70;2.40;;;;;;;8.10;66.27;100711.41;130312;1267;107972;-79
2022/09/03 00:30:34;;;;;;;6.60;2.70;;;;;;;8.09;66.63;100709.38;130358;1267;108744;-78
2022/09/03 00:33:42;;;;;;;3.80;2.50;;;;;;;8.05;66.57;100711.13;130364;1267;108977;-78
2022/09/03 00:36:48;;;;;;;5.80;2.80;;;;;;;8.07;66.40;100708.13;130371;1267;109800;-79
2022/09/03 00:39:55;;;;;;;4.00;2.70;;;;;;;8.06;66.53;100706.96;130313;1267;107549;-79
2022/09/03 00:43:11;;;;;;;3.40;2.80;;;;;;;8.00;66.76;100710.98;130224;1267;108879;-78
2022/09/03 00:46:24;;;;;;;3.50;2.50;;;;;;;7.97;66.72;100710.17;130316;1268;107657;-78
2022/09/03 00:49:43;;;;;;;4.10;2.40;;;;;;;7.95;66.49;100713.41;130325;1267;107529;-78
2022/09/03 00:52:59;;;;;;;4.20;2.80;;;;;;;7.89;66.58;100719.56;130319;1268;108901;-78
2022/09/03 00:56:18;;;;;;;4.70;2.70;;;;;;;7.82;66.60;100716.01;130262;1268;108244;-78
2022/09/03 00:59:39;;;;;;;4.80;2.80;;;;;;;7.78;66.93;100713.66;130347;1267;107652;-78
2022/09/03 01:02:58;;;;;;;5.80;2.60;;;;;;;7.75;66.77;100722.44;130249;1268;108693;-78
2022/09/03 01:06:18;;;;;;;4.90;2.70;;;;;;;7.69;66.84;100725.34;130241;1267;108945;-78
2022/09/03 01:09:41;;;;;;;5.60;2.70;;;;;;;7.66;66.73;100728.11;130384;1267;109014;-78
2022/09/03 01:12:54;;;;;;;3.60;2.50;;;;;;;7.63;67.03;100726.20;130251;1267;108911;-78
2022/09/03 01:16:09;;;;;;;4.50;2.50;;;;;;;7.59;67.05;100722.65;130173;1268;108924;-79
2022/09/03 01:19:36;;;;;;;3.20;2.40;;;;;;;7.53;66.77;100724.86;130268;1268;109157;-79
2022/09/03 01:23:06;;;;;;;4.50;2.40;;;;;;;7.49;67.00;100723.06;130334;1268;107357;-79
2022/09/03 01:26:37;;;;;;;6.50;2.30;;;;;;;7.47;66.81;100716.80;130340;1267;108621;-79
2022/09/03 01:29:48;;;;;;;4.20;2.40;;;;;;;7.49;67.05;100712.98;130329;1268;108791;-78
2022/09/03 01:33:00;;;;;;;4.00;2.50;;;;;;;7.50;67.18;100707.04;130321;1268;109456;-79
2022/09/03 01:36:16;;;;;;;5.30;2.70;;;;;;;7.52;66.92;100706.39;130280;1267;108876;-78
2022/09/03 01:39:31;;;;;;;3.70;2.50;;;;;;;7.53;66.93;100704.73;130322;1267;108522;-79
2022/09/03 01:42:47;;;;;;;5.50;2.70;;;;;;;7.54;66.82;100702.52;130298;1267;107708;-78
2022/09/03 01:45:59;;;;;;;4.90;2.60;;;;;;;7.52;67.05;100706.36;130384;1267;108890;-79
2022/09/03 01:49:15;;;;;;;4.50;2.60;;;;;;;7.50;67.02;100703.21;130334;1267;108936;-79
2022/09/03 01:52:33;;;;;;;5.30;2.80;;;;;;;7.43;66.90;100703.52;130302;1268;107627;-79
2022/09/03 01:55:56;;;;;;;6.80;2.80;;;;;;;7.39;66.73;100705.64;130220;1267;108001;-78
2022/09/03 01:59:07;;;;;;;3.40;2.50;;;;;;;7.35;66.86;100705.42;130344;1267;108790;-78
2022/09/03 02:02:20;;;;;;;4.20;2.60;;;;;;;7.30;66.81;100704.59;130401;1266;108519;-78
2022/09/03 02:05:25;;;;;;;;;;;;;;;7.25;66.84;100702.83;130399;1267;108780;-79
2022/09/03 02:08:30;;;;;;;4.10;2.60;;;;;;;7.21;66.96;100704.73;130355;1268;108802;-78
2022/09/03 02:11:36;;;;;;;6.00;3.10;;;;;;;7.18;67.04;100702.64;130435;1268;106783;-79
2022/09/03 02:14:42;;;;;;;3.70;2.60;;;;;;;7.15;67.04;100703.79;130419;1267;108883;-79
2022/09/03 02:17:54;;;;;;;4.00;2.70;;;;;;;7.08;67.15;100705.04;130413;1267;108950;-79
2022/09/03 02:21:00;;;;;;;4.70;2.80;;;;;;;7.02;67.36;100705.10;130468;1267;107763;-79
2022/09/03 02:24:08;;;;;;;3.50;2.50;;;;;;;6.99;67.31;100700.62;130353;1268;108914;-79
2022/09/03 02:27:13;;;;;;;4.10;2.50;;;;;;;6.95;67.28;100703.00;130446;1266;109580;-79
2022/09/03 02:30:18;;;;;;;5.50;2.40;;;;;;;6.93;67.35;100699.48;130382;1266;108824;-78
2022/09/03 02:33:24;;;;;;;6.30;2.70;;;;;;;6.94;67.26;100698.90;130367;1268;109014;-79
2022/09/03 02:36:34;;;;;;;5.70;2.70;;;;;;;6.94;67.56;100699.91;130392;1266;107520;-79
2022/09/03 02:39:40;;;;;;;4.90;2.90;;;;;;;6.98;67.40;100690.08;130504;1267;108587;-77
2022/09/03 02:42:46;;;;;;;5.10;2.90;;;;;;;7.01;67.66;100692.63;130343;1266;108721;-79
2022/09/03 02:45:55;;;;;;;5.20;2.90;;;;;;;7.02;67.53;100697.35;130389;1268;108667;-80
2022/09/03 02:49:01;;;;;;;4.10;2.60;;;;;;;7.00;67.41;100701.08;130445;1266;107073;-77
2022/09/03 02:52:10;;;;;;;4.80;2.40;;;;;;;6.97;67.35;100700.38;130454;1268;108886;-78
2022/09/03 02:55:16;;;;;;;4.50;2.90;;;;;;;6.95;67.32;100699.12;130420;1268;108761;-79
2022/09/03 02:58:22;;;;;;;3.80;2.80;;;;;;;6.90;67.40;100698.27;130319;1267;108642;-78
2022/09/03 03:01:27;;;;;;;3.60;2.70;;;;;;;6.86;67.49;100699.69;130345;1267;108733;-79
2022/09/03 03:04:33;;;;;;;4.60;2.50;;;;;;;6.83;67.39;100699.67;130405;1268;108896;-78
2022/09/03 03:07:40;;;;;;;4.20;2.60;;;;;;;6.79;67.42;100703.53;130359;1268;107817;-79
2022/09/03 03:10:46;;;;;;;4.40;3.00;;;;;;;6.75;67.41;100707.95;130387;1268;109578;-79
2022/09/03 03:13:51;;;;;;;4.00;2.60;;;;;;;6.72;67.53;100708.72;130408;1266;108771;-77
2022/09/03 03:16:57;;;;;;;4.40;2.80;;;;;;;6.68;67.60;100711.83;130482;1268;108836;-77
2022/09/03 03:20:03;;;;;;;4.30;2.70;;;;;;;6.64;67.60;100708.73;130471;1266;108822;-77
2022/09/03 03:23:09;;;;;;;4.20;2.40;;;;;;;6.61;67.63;100711.47;130394;1267;108722;-79
2022/09/03 03:26:17;;;;;;;5.70;2.70;;;;;;;6.58;67.46;100710.60;130412;1265;108403;-78
2022/09/03 03:29:23;;;;;;;5.10;2.50;;;;;;;6.53;67.27;100717.73;130376;1267;108954;-78
2022/09/03 03:32:29;;;;;;;3.80;2.40;;;;;;;6.50;67.59;100715.45;130371;1267;108746;-79
2022/09/03 03:35:35;;;;;;;5.90;2.80;;;;;;;6.49;67.55;100716.98;130355;1267;108723;-78
2022/09/03 03:38:41;;;;;;;4.30;3.00;;;;;;;6.49;67.55;100718.55;130357;1267;108768;-79
2022/09/03 03:41:46;;;;;;;5.40;2.90;;;;;;;6.50;67.63;100717.05;130535;1268;109769;-77
2022/09/03 03:44:52;;;;;;;4.90;2.80;;;;;;;6.53;67.50;100711.93;130450;1268;108867;-77
2022/09/03 03:48:00;;;;;;;3.80;2.80;;;;;;;6.53;67.27;100712.43;130461;1266;109644;-77
2022/09/03 03:51:07;;;;;;;5.70;2.90;;;;;;;6.51;67.44;100715.77;130451;1267;109014;-77
2022/09/03 03:54:12;;;;;;;3.80;2.50;;;;;;;6.48;67.51;100714.41;130351;1266;109237;-80
2022/09/03 03:57:18;;;;;;;4.00;2.80;;;;;;;6.45;67.29;100713.71;130373;1268;108917;-79
2022/09/03 04:00:24;;;;;;;4.00;2.50;;;;;;;6.44;67.55;100713.42;130386;1267;107707;-75
2022/09/03 04:03:30;;;;;;;4.70;2.90;;;;;;;6.42;67.48;100716.43;130347;1267;108831;-74
2022/09/03 04:06:35;;;;;;;5.10;2.80;;;;;;;6.38;67.66;100718.16;130200;1268;108039;-74
2022/09/03 04:09:41;;;;;;;4.60;3.10;;;;;;;6.37;67.51;100719.31;130408;1268;108898;-74
2022/09/03 04:12:46;;;;;;;4.70;2.80;;;;;;;6.34;67.44;100725.13;130362;1268;108884;-75
2022/09/03 04:15:52;;;;;;;3.90;2.60;;;;;;;6.33;67.65;100724.39;130657;1268;108765;-76
2022/09/03 04:18:58;;;;;;;6.70;2.80;;;;;;;6.34;67.85;100725.33;130378;1268;108704;-76
2022/09/03 04:22:03;;;;;;;4.70;2.80;;;;;;;6.34;67.62;100730.98;130388;1266;107603;-76
2022/09/03 04:25:10;;;;;;;3.60;2.40;;;;;;;6.33;67.90;100736.18;130396;1268;108740;-77
2022/09/03 04:28:15;;;;;;;5.90;2.90;;;;;;;6.37;67.82;100741.70;130388;1268;108726;-77
2022/09/03 04:31:21;;;;;;;4.50;3.00;;;;;;;6.48;67.96;100742.66;130404;1268;108971;-76
2022/09/03 04:34:27;;;;;;;7.60;2.70;;;;;;;6.58;67.90;100743.70;130362;1267;108869;-78
2022/09/03 04:37:33;;;;;;;6.00;2.70;;;;;;;6.75;68.00;100740.64;130361;1266;108873;-76
2022/09/03 04:40:39;;;;;;;5.10;2.60;;;;;;;6.93;68.03;100739.10;130464;1266;108786;-77
2022/09/03 04:43:45;;;;;;;4.30;2.60;;;;;;;7.17;68.14;100733.90;130361;1268;109175;-77
2022/09/03 04:46:52;;;;;;;4.70;2.80;;;;;;;7.39;67.85;100737.27;130427;1268;108837;-78
2022/09/03 04:49:57;;;;;;;4.80;3.30;;;;;;;7.60;68.02;100734.21;130493;1268;108730;-77
2022/09/03 04:53:04;;;;;;;4.20;2.70;;;;;;;7.82;67.89;100736.17;130424;1268;108702;-76
2022/09/03 04:56:15;;;;;;;4.00;2.80;;;;;;;8.03;67.93;100740.71;130337;1268;108724;-76
2022/09/03 04:59:21;;;;;;;5.00;3.10;;;;;;;8.20;68.06;100741.77;130511;1268;107808;-77
2022/09/03 05:02:26;;;;;;;4.00;2.70;;;;;;;8.36;68.15;100738.52;130368;1267;108848;-76
2022/09/03 05:05:33;;;;;;;4.20;2.80;;;;;;;8.55;68.21;100737.89;130436;1267;108998;-75
2022/09/03 05:08:39;;;;;;;3.90;2.80;;;;;;;8.72;68.33;100736.63;130509;1268;108643;-76
2022/09/03 05:11:45;;;;;;;4.50;2.60;;;;;;;8.89;68.28;100730.98;130436;1265;109706;-75
2022/09/03 05:14:51;;;;;;;4.70;2.80;;;;;;;9.08;68.41;100733.78;130393;1267;109137;-76
2022/09/03 05:17:59;;;;;;;4.00;2.60;;;;;;;9.23;68.37;100739.74;130480;1268;108670;-75
2022/09/03 05:21:07;;;;;;;2.90;2.30;;;;;;;9.38;68.51;100741.44;130402;1268;108833;-75
2022/09/03 05:24:13;;;;;;;4.30;2.50;;;;;;;9.50;68.77;100736.33;130379;1268;108744;-76
2022/09/03 05:27:22;;;;;;;3.50;2.50;;;;;;;9.63;68.98;100736.30;130380;1268;107377;-75
2022/09/03 05:30:28;;;;;;;4.30;2.90;;;;;;;9.74;68.92;100736.80;130398;1268;108641;-76
2022/09/03 05:33:37;;;;;;;3.70;2.80;;;;;;;9.80;69.14;100738.48;130396;1267;106758;-76
2022/09/03 05:36:42;;;;;;;5.10;3.60;;;;;;;9.87;69.45;100738.07;130419;1266;107533;-77
2022/09/03 05:39:47;;;;;;;8.60;4.40;;;;;;;9.96;69.95;100739.11;130394;1267;108730;-78
2022/09/03 05:42:58;;;;;;;6.50;4.60;;;;;;;10.02;70.12;100740.66;130421;1268;108718;-74
2022/09/03 05:46:07;;;;;;;11.30;4.60;;;;;;;10.08;70.20;100739.60;130689;1267;109149;-73
2022/09/03 05:49:13;;;;;;;7.50;3.90;;;;;;;10.14;70.44;100735.65;130411;1268;108536;-76
2022/09/03 05:52:20;;;;;;;7.80;4.30;;;;;;;10.20;70.31;100727.10;130407;1266;108628;-74
2022/09/03 05:55:27;;;;;;;9.10;4.40;;;;;;;10.29;70.99;100722.09;130514;1268;108765;-76
2022/09/03 05:58:34;;;;;;;9.00;4.60;;;;;;;10.39;70.60;100730.29;130470;1268;108776;-76
2022/09/03 06:01:42;;;;;;;7.50;4.60;;;;;;;10.49;70.63;100730.92;130366;1267;108755;-76
2022/09/03 06:04:47;;;;;;;8.50;4.40;;;;;;;10.62;70.81;100732.58;130426;1268;108964;-76
2022/09/03 06:07:53;;;;;;;6.20;4.20;;;;;;;10.73;70.91;100735.62;130528;1268;108059;-73
2022/09/03 06:11:02;;;;;;;7.30;4.40;;;;;;;10.81;70.64;100737.61;130411;1266;108882;-76
2022/09/03 06:14:10;;;;;;;7.00;4.70;;;;;;;10.86;70.72;100731.08;130505;1267;108671;-74
2022/09/03 06:17:16;;;;;;;8.00;4.50;;;;;;;10.91;71.03;100730.95;130535;1268;108743;-76
2022/09/03 06:20:21;;;;;;;10.50;3.90;;;;;;;10.97;71.31;100734.60;130570;1268;108930;-76
2022/09/03 06:23:28;;;;;;;6.90;3.80;;;;;;;11.06;70.44;100735.23;130430;1268;108765;-75
2022/09/03 06:26:33;;;;;;;6.40;4.20;;;;;;;11.18;70.50;100731.77;130459;1268;107436;-74
2022/09/03 06:29:38;;;;;;;9.70;3.80;;;;;;;11.32;70.84;100729.45;130470;1267;108620;-74
2022/09/03 06:32:46;;;;;;;10.20;4.00;;;;;;;11.48;70.61;100727.05;130423;1268;108762;-76
2022/09/03 06:35:58;;;;;;;6.30;3.60;;;;;;;11.60;70.39;100730.28;130359;1267;108879;-74
2022/09/03 06:39:04;;;;;;;7.30;3.80;;;;;;;11.71;69.95;100732.82;130391;1268;108938;-74
2022/09/03 06:42:09;;;;;;;7.50;3.70;;;;;;;11.83;69.99;100733.09;130402;1267;108836;-74
2022/09/03 06:45:16;;;;;;;6.10;3.50;;;;;;;11.95;69.78;100736.04;130477;1267;108037;-75
2022/09/03 06:48:21;;;;;;;8.60;3.80;;;;;;;12.06;70.05;100737.98;130487;1267;108694;-74
2022/09/03 06:51:29;;;;;;;11.20;4.40;;;;;;;12.14;70.12;100737.52;130502;1267;108886;-74
2022/09/03 06:54:34;;;;;;;6.60;3.80;;;;;;;12.25;70.40;100738.63;130471;1267;108637;-74
2022/09/03 06:57:40;;;;;;;7.00;3.50;;;;;;;12.33;70.31;100737.03;130425;1268;108768;-73
2022/09/03 07:00:45;;;;;;;5.30;3.40;;;;;;;12.42;70.26;100735.11;130312;1266;108867;-75
2022/09/03 07:03:56;;;;;;;6.40;3.50;;;;;;;12.57;70.12;100735.21;130330;1268;108878;-74
2022/09/03 07:07:01;;;;;;;6.10;3.20;;;;;;;12.72;69.80;100736.27;130457;1268;108828;-76
2022/09/03 07:10:09;;;;;;;6.50;3.40;;;;;;;12.87;69.99;100729.96;130393;1266;108622;-76
2022/09/03 07:13:15;;;;;;;5.70;3.50;;;;;;;13.01;69.73;100729.89;130439;1268;108884;-76
2022/09/03 07:16:23;;;;;;;6.90;3.40;;;;;;;13.14;69.42;100734.25;130513;1268;108963;-75
2022/09/03 07:19:29;;;;;;;3.90;2.90;;;;;;;13.25;68.74;100737.58;130432;1268;109850;-76
2022/09/03 07:22:34;;;;;;;5.20;3.20;;;;;;;13.38;68.99;100738.80;130443;1268;108737;-78
2022/09/03 07:25:39;;;;;;;8.20;3.10;;;;;;;13.51;69.10;100738.00;130546;1268;108834;-76
2022/09/03 07:28:46;;;;;;;6.20;3.00;;;;;;;13.63;68.78;100737.88;130470;1268;108838;-74
2022/09/03 07:31:52;;;;;;;5.20;3.10;;;;;;;13.74;68.63;100738.27;130531;1267;107163;-76
2022/09/03 07:34:57;;;;;;;4.90;2.80;;;;;;;13.87;68.63;100740.16;130480;1268;107125;-75
2022/09/03 07:38:03;;;;;;;5.50;3.10;;;;;;;13.97;68.09;100740.75;130487;1268;108824;-77
2022/09/03 07:41:10;;;;;;;4.10;2.70;;;;;;;14.04;67.95;100737.79;130480;1268;107764;-76
2022/09/03 07:44:18;;;;;;;4.80;2.40;;;;;;;14.14;67.86;100740.50;130486;1267;108629;-75
2022/09/03 07:47:25;;;;;;;3.80;2.50;;;;;;;14.25;67.38;100742.70;130413;1266;108736;-79
2022/09/03 07:50:36;;;;;;;3.50;2.40;;;;;;;14.35;67.51;100741.44;130415;1267;110475;-79
2022/09/03 07:53:42;;;;;;;8.60;2.70;;;;;;;14.44;67.56;100735.98;130485;1268;107166;-82
2022/09/03 07:56:47;;;;;;;3.00;2.20;;;;;;;14.52;67.27;100736.89;130512;1266;108916;-74
2022/09/03 07:59:53;;;;;;;4.00;2.40;;;;;;;14.61;66.96;100740.89;130360;1266;108744;-74
2022/09/03 08:03:04;;;;;;;4.30;2.50;;;;;;;14.71;66.25;100739.92;130553;1268;108613;-74
2022/09/03 08:06:11;;;;;;;5.50;2.40;;;;;;;14.82;66.46;100735.88;130502;1267;108727;-73
2022/09/03 08:09:16;;;;;;;3.50;2.10;;;;;;;14.92;66.34;100731.88;130394;1268;108773;-74
2022/09/03 08:12:22;;;;;;;4.30;2.20;;;;;;;15.01;65.87;100728.73;130538;1265;108843;-74
2022/09/03 08:15:28;;;;;;;3.20;1.90;;;;;;;15.11;65.97;100726.91;130534;1268;108817;-71
2022/09/03 08:18:37;;;;;;;3.60;2.10;;;;;;;15.20;65.87;100733.04;130286;1266;107841;-72
2022/09/03 08:21:43;;;;;;;7.90;2.40;;;;;;;15.29;65.57;100729.92;130569;1268;108602;-71
2022/09/03 08:24:49;;;;;;;3.30;1.90;;;;;;;15.38;65.01;100721.02;130555;1268;108684;-73
2022/09/03 08:27:54;;;;;;;4.30;2.10;;;;;;;15.46;64.87;100729.63;130714;1267;108667;-73
2022/09/03 08:31:04;;;;;;;4.00;2.10;;;;;;;15.56;64.63;100726.00;130458;1268;108879;-81
2022/09/03 08:34:10;;;;;;;4.50;2.30;;;;;;;15.65;64.51;100729.79;130480;1267;107686;-72
2022/09/03 08:37:16;;;;;;;2.90;2.10;;;;;;;15.74;64.32;100725.61;130423;1268;108791;-73
2022/09/03 08:40:23;;;;;;;5.70;2.10;;;;;;;15.81;64.29;100721.52;130384;1267;108705;-78
2022/09/03 08:43:28;;;;;;;4.60;2.00;;;;;;;15.91;63.90;100724.73;130534;1268;106884;-73
2022/09/03 08:46:47;;;;;;;3.40;1.90;;;;;;;16.00;63.78;100725.98;130514;1267;108670;-73
2022/09/03 08:49:57;;;;;;;2.90;1.80;;;;;;;16.09;63.40;100724.46;130427;1268;107673;-74
2022/09/03 08:53:10;;;;;;;3.30;2.00;;;;;;;16.16;63.31;100718.96;130372;1267;108876;-74
2022/09/03 08:56:24;;;;;;;2.50;1.70;;;;;;;16.24;63.30;100715.66;130525;1268;108666;-82
2022/09/03 08:59:30;;;;;;;4.40;2.00;;;;;;;16.34;62.52;100716.00;130648;1267;107689;-79
2022/09/03 09:02:48;;;;;;;3.80;1.80;;;;;;;16.42;62.05;100713.08;130763;1268;108732;-79
2022/09/03 09:06:00;;;;;;;5.40;2.20;;;;;;;16.49;62.39;100712.17;130563;1268;108711;-80
2022/09/03 09:09:18;;;;;;;5.00;2.00;;;;;;;16.58;62.23;100705.70;130582;1267;108887;-79
2022/09/03 09:12:35;;;;;;;4.50;2.10;;;;;;;16.66;61.30;100705.88;130480;1268;108830;-82
2022/09/03 09:15:48;;;;;;;4.60;2.10;;;;;;;16.75;61.07;100700.20;130466;1266;108795;-78
2022/09/03 09:19:10;;;;;;;4.50;1.80;;;;;;;16.84;61.56;100699.88;130362;1268;108682;-78
2022/09/03 09:22:17;;;;;;;;;;;;;;;16.93;60.77;100699.19;130484;1266;108904;-77
2022/09/03 09:25:25;;;;;;;3.00;1.90;;;;;;;16.99;60.53;100698.59;130526;1267;108508;-76
2022/09/03 09:28:36;;;;;;;4.50;1.90;;;;;;;17.04;59.98;100696.46;130505;1268;108710;-77
2022/09/03 09:31:43;;;;;;;3.90;1.70;;;;;;;17.11;60.11;100697.07;130390;1268;108824;-77
2022/09/03 09:34:50;;;;;;;3.40;1.90;;;;;;;17.17;59.99;100695.49;130392;1268;108838;-77
2022/09/03 09:37:59;;;;;;;3.10;2.00;;;;;;;17.23;59.75;100700.39;130396;1268;108763;-78
2022/09/03 09:41:12;;;;;;;2.80;1.90;;;;;;;17.31;60.12;100701.24;130432;1267;107683;-77
2022/09/03 09:44:22;;;;;;;3.40;1.90;;;;;;;17.37;59.43;100690.75;130439;1267;107669;-74
2022/09/03 09:47:30;;;;;;;2.00;1.70;;;;;;;17.44;59.45;100695.36;130382;1268;108728;-77
2022/09/03 09:50:36;;;;;;;2.50;1.70;;;;;;;17.51;58.35;100697.77;130396;1268;108567;-75
2022/09/03 09:53:43;;;;;;;2.70;1.70;;;;;;;17.59;58.42;100690.48;130358;1267;108853;-75
2022/09/03 09:57:02;;;;;;;3.20;1.50;;;;;;;17.72;57.76;100693.80;130187;1268;108712;-76
2022/09/03 10:00:11;;;;;;;3.20;1.40;;;;;;;17.84;57.15;100692.05;130324;1268;109142;-76
2022/09/03 10:03:20;;;;;;;3.80;1.50;;;;;;;17.93;56.55;100691.39;130397;1268;108687;-77
2022/09/03 10:09:59;;;;;;;2.20;1.40;;;;;;;18.07;55.62;100689.41;130569;1268;108761;-76
2022/09/03 10:13:11;;;;;;;2.10;1.50;;;;;;;18.13;55.52;100696.20;131112;1267;108725;-77
2022/09/03 10:16:26;;;;;;;3.90;1.40;;;;;;;18.15;55.15;100684.80;131344;1267;108706;-77
2022/09/03 10:19:40;;;;;;;2.70;1.40;;;;;;;18.21;55.40;100683.41;132004;1267;108441;-77
2022/09/03 10:22:53;;;;;;;2.70;1.60;;;;;;;18.31;55.24;100679.59;130622;1268;108674;-76
2022/09/03 10:26:06;;;;;;;2.20;1.50;;;;;;;18.37;53.88;100681.48;130378;1267;108992;-76
2022/09/03 10:29:16;;;;;;;3.70;1.30;;;;;;;18.42;54.19;100680.11;130632;1268;108645;-76
2022/09/03 10:32:32;;;;;;;4.40;1.40;;;;;;;18.45;53.84;100677.81;130256;1268;108675;-76
2022/09/03 10:35:46;;;;;;;2.40;1.40;;;;;;;18.48;53.85;100682.33;130369;1268;108752;-77
2022/09/03 10:39:01;;;;;;;3.20;1.50;;;;;;;18.49;53.56;100674.84;130410;1268;108619;-78
2022/09/03 10:42:30;;;;;;;3.50;1.20;;;;;;;18.53;53.61;100674.52;130572;1267;108493;-78
2022/09/03 10:45:42;;;;;;;1.90;1.30;;;;;;;18.57;53.54;100668.59;130695;1268;108949;-77
2022/09/03 10:49:09;;;;;;;2.60;1.30;;;;;;;18.60;52.98;100666.70;130488;1267;108882;-78
2022/09/03 10:52:24;;;;;;;2.20;1.20;;;;;;;18.63;52.69;100659.13;130459;1268;108777;-76
2022/09/03 10:55:40;;;;;;;2.30;1.40;;;;;;;18.68;52.98;100660.83;130484;1267;109672;-78
2022/09/03 10:59:04;;;;;;;3.20;1.50;;;;;;;18.75;52.69;100664.29;130467;1267;109547;-79
2022/09/03 11:02:34;;;;;;;2.60;1.30;;;;;;;18.78;52.18;100652.88;130774;1268;108672;-80
2022/09/03 11:05:44;;;;;;;2.20;1.50;;;;;;;18.80;52.10;100649.74;130506;1266;109202;-76
2022/09/03 11:08:58;;;;;;;2.40;1.70;;;;;;;18.83;51.07;100650.44;130610;1268;108721;-74
2022/09/03 11:12:08;;;;;;;3.70;1.50;;;;;;;18.91;51.77;100647.16;130525;1267;108857;-80
2022/09/03 11:15:22;;;;;;;1.80;1.20;;;;;;;18.91;50.57;100644.79;130549;1268;107651;-77
2022/09/03 11:18:33;;;;;;;6.30;1.70;;;;;;;18.91;51.20;100642.76;130507;1268;108738;-84
2022/09/03 11:21:40;;;;;;;2.80;1.30;;;;;;;18.97;51.29;100643.42;130558;1268;108872;-80
2022/09/03 11:24:51;;;;;;;5.30;1.50;;;;;;;19.03;51.05;100644.33;130781;1268;107575;-79
2022/09/03 11:28:10;;;;;;;2.60;1.40;;;;;;;19.10;50.55;100644.32;130961;1268;108542;-80
2022/09/03 11:31:25;;;;;;;3.80;1.50;;;;;;;19.14;50.53;100633.70;130556;1268;108693;-79
2022/09/03 11:34:33;;;;;;;1.90;1.30;;;;;;;19.17;50.51;100627.88;130399;1268;107603;-87
2022/09/03 11:37:53;;;;;;;1.70;1.40;;;;;;;19.17;49.85;100624.60;130591;1266;108719;-79
2022/09/03 11:41:13;;;;;;;2.50;1.50;;;;;;;19.17;50.32;100619.05;131098;1268;108957;-79
2022/09/03 11:44:22;;;;;;;3.10;1.40;;;;;;;19.19;49.88;100616.58;130430;1267;107669;-80
2022/09/03 11:47:40;;;;;;;2.20;1.10;;;;;;;19.22;49.50;100616.71;130603;1266;109652;-80
2022/09/03 11:50:54;;;;;;;2.80;1.60;;;;;;;19.30;49.19;100619.40;130607;1268;107881;-79
2022/09/03 11:54:02;;;;;;;3.30;1.40;;;;;;;19.32;49.35;100615.79;130408;1268;108687;-78
2022/09/03 11:57:14;;;;;;;3.80;1.30;;;;;;;19.37;49.10;100618.98;130392;1267;108589;-80
2022/09/03 12:00:23;;;;;;;2.60;1.40;;;;;;;19.39;49.09;100612.13;130445;1268;109342;-79
2022/09/03 12:03:42;;;;;;;2.30;1.40;;;;;;;19.46;49.53;100613.05;130493;1266;108767;-78
2022/09/03 12:07:09;;;;;;;3.60;1.30;;;;;;;19.53;49.03;100608.75;130528;1268;108826;-80
2022/09/03 12:10:21;;;;;;;3.10;1.30;;;;;;;19.59;49.09;100607.39;130555;1268;108739;-74
2022/09/03 12:13:46;;;;;;;2.30;1.60;;;;;;;19.64;48.80;100604.90;130799;1268;108601;-78
2022/09/03 12:17:06;;;;;;;2.50;1.60;;;;;;;19.64;48.34;100594.13;130352;1268;108682;-76
2022/09/03 12:20:16;;;;;;;3.00;1.40;;;;;;;19.65;48.22;100594.41;129537;1266;1489906;-76
2022/09/03 12:23:30;;;;;;;1.70;1.50;;;;;;;19.61;47.81;100587.48;130459;1268;107737;-80
2022/09/03 12:26:41;;;;;;;3.10;1.60;;;;;;;19.57;47.82;100585.48;130579;1268;108881;-80
2022/09/03 12:29:56;;;;;;;2.00;1.50;;;;;;;19.61;48.18;100586.91;130577;1267;107597;-77
2022/09/03 12:33:13;;;;;;;3.30;1.50;;;;;;;19.63;47.94;100579.97;130468;1268;108860;-80
2022/09/03 12:36:19;;;;;;;1.80;1.50;;;;;;;19.63;47.38;100572.98;130267;1268;108633;-79
2022/09/03 12:39:26;;;;;;;2.20;1.50;;;;;;;19.64;47.77;100572.30;130551;1268;109015;-76
2022/09/03 12:42:33;;;;;;;3.00;1.50;;;;;;;19.69;47.82;100569.83;130486;1267;108681;-75
2022/09/03 12:45:45;;;;;;;2.50;1.60;;;;;;;19.75;47.55;100573.56;130305;1268;108752;-78
2022/09/03 12:48:58;;;;;;;1.80;1.20;;;;;;;19.82;47.37;100570.73;130408;1268;108722;-77
2022/09/03 12:52:08;;;;;;;3.10;1.50;;;;;;;19.89;47.04;100567.16;130406;1268;108392;-78
2022/09/03 12:55:26;;;;;;;2.60;1.50;;;;;;;19.92;46.70;100568.88;130356;1268;108873;-78
2022/09/03 12:58:38;;;;;;;2.30;1.70;;;;;;;19.94;46.38;100568.10;130342;1268;108721;-77
2022/09/03 13:01:48;;;;;;;1.60;1.20;;;;;;;19.96;46.53;100559.89;130653;1268;107459;-77
2022/09/03 13:04:54;;;;;;;1.70;1.50;;;;;;;20.02;46.39;100563.77;130789;1268;108456;-79
2022/09/03 13:08:02;;;;;;;2.10;1.30;;;;;;;20.04;46.04;100554.64;130617;1268;108837;-78
2022/09/03 13:11:09;;;;;;;3.40;1.60;;;;;;;20.08;46.42;100555.76;130684;1268;108788;-78
2022/09/03 13:14:17;;;;;;;2.20;1.30;;;;;;;20.13;45.98;100556.29;130721;1268;108758;-78
2022/09/03 13:17:36;;;;;;;3.10;1.30;;;;;;;20.15;45.91;100555.84;130687;1268;108556;-76
2022/09/03 13:20:54;;;;;;;3.10;1.80;;;;;;;20.20;45.95;100549.92;130794;1268;109711;-77
2022/09/03 13:24:14;;;;;;;2.80;1.80;;;;;;;20.26;46.26;100547.21;131358;1266;107635;-76
2022/09/03 13:27:31;;;;;;;1.80;1.30;;;;;;;20.26;45.87;100546.66;130486;1268;107274;-77
2022/09/03 13:30:53;;;;;;;1.70;1.20;;;;;;;20.25;45.90;100549.09;130395;1268;107584;-77
2022/09/03 13:34:22;;;;;;;3.20;1.40;;;;;;;20.24;45.49;100541.98;130423;1269;108091;-77
2022/09/03 13:37:37;;;;;;;3.40;1.20;;;;;;;20.23;45.21;100542.38;130412;1268;108996;-77
2022/09/03 13:40:49;;;;;;;2.70;1.20;;;;;;;20.16;45.22;100547.14;130358;1268;109806;-78
2022/09/03 13:44:03;;;;;;;2.70;1.20;;;;;;;20.07;45.36;100547.17;130376;1268;108734;-79
2022/09/03 13:47:19;;;;;;;1.70;1.30;;;;;;;19.96;44.86;100542.51;130711;1267;107652;-77
2022/09/03 13:50:28;;;;;;;4.20;1.00;;;;;;;19.86;44.97;100543.88;130535;1268;107558;-76
2022/09/03 13:53:41;;;;;;;1.40;1.00;;;;;;;19.84;44.98;100541.83;130535;1268;107253;-76
2022/09/03 13:56:56;;;;;;;3.10;1.20;;;;;;;19.89;45.26;100538.09;130438;1268;108537;-78
2022/09/03 14:00:07;;;;;;;2.70;1.30;;;;;;;19.93;44.76;100540.80;130591;1267;108891;-76
2022/09/03 14:03:24;;;;;;;2.10;1.20;;;;;;;19.91;44.57;100536.54;130539;1268;108989;-77
2022/09/03 14:06:43;;;;;;;2.50;1.10;;;;;;;19.91;44.70;100538.51;130348;1268;108879;-75
2022/09/03 14:09:59;;;;;;;5.00;2.70;;;;;;;19.91;44.32;100536.37;131458;1267;108785;-76
2022/09/03 14:13:14;;;;;;;4.00;2.10;;;;;;;19.87;44.68;100533.95;130546;1268;108662;-77
2022/09/03 14:16:31;;;;;;;5.80;5.20;;;;;;;19.84;44.56;100534.58;130711;1267;108946;-77
2022/09/03 14:19:43;;;;;;;5.00;2.40;;;;;;;19.79;44.65;100535.48;130487;1267;108776;-76
2022/09/03 14:22:58;;;;;;;1.80;1.60;;;;;;;19.73;44.73;100535.77;130425;1268;107624;-77
2022/09/03 14:26:06;;;;;;;2.70;1.10;;;;;;;19.70;44.65;100534.16;130373;1268;108744;-76
2022/09/03 14:29:20;;;;;;;1.40;1.10;;;;;;;19.66;44.42;100537.52;130517;1268;108752;-76
2022/09/03 14:32:31;;;;;;;3.40;2.50;;;;;;;19.62;43.94;100537.35;130677;1267;108867;-78